Time;durP1;ratioP1;P1;durP2;ratioP2;P2;SDS_P1;SDS_P2;PMS_P1;PMS_P2;Temp;Humidity;BMP_temperature;BMP_pressure;BME280_temperature;BME280_humidity;BME280_pressure;Samples;Min_cycle;Max_cycle;Signal;HPM_P1;HPM_P2
2021/05/25 00:05:05;;;;;;;20.30;11.65;;;13.30;71.70;;;;;;5052068;28;20035;-78
2021/05/25 00:07:31;;;;;;;25.23;11.95;;;13.30;72.00;;;;;;5051479;28;20098;-81
2021/05/25 00:09:57;;;;;;;19.48;10.48;;;13.20;72.10;;;;;;5053248;28;20021;-82
2021/05/25 00:12:23;;;;;;;16.50;10.27;;;13.20;72.30;;;;;;5037408;28;20060;-80
2021/05/25 00:14:49;;;;;;;15.25;10.50;;;13.20;72.50;;;;;;5055406;28;20020;-80
2021/05/25 00:17:15;;;;;;;18.70;10.45;;;13.20;72.60;;;;;;5055297;28;20021;-79
2021/05/25 00:19:41;;;;;;;15.88;9.02;;;13.20;72.80;;;;;;5055177;28;20021;-81
2021/05/25 00:22:06;;;;;;;16.70;10.15;;;13.20;72.90;;;;;;5055215;28;20110;-80
2021/05/25 00:24:33;;;;;;;11.48;9.35;;;13.10;73.10;;;;;;5055389;28;20032;-78
2021/05/25 00:26:59;;;;;;;11.35;8.18;;;13.10;73.30;;;;;;5054938;28;20151;-81
2021/05/25 00:29:25;;;;;;;9.20;7.32;;;13.10;73.10;;;;;;5055024;28;20124;-81
2021/05/25 00:31:51;;;;;;;10.40;6.90;;;13.10;73.10;;;;;;5054532;28;20013;-80
2021/05/25 00:34:17;;;;;;;9.70;6.50;;;13.10;73.00;;;;;;5055166;28;20454;-80
2021/05/25 00:36:42;;;;;;;10.60;7.13;;;13.20;72.90;;;;;;5054815;28;20107;-81
2021/05/25 00:39:08;;;;;;;14.27;7.07;;;13.20;73.10;;;;;;5054841;28;20029;-80
2021/05/25 00:41:36;;;;;;;7.88;5.53;;;13.20;73.10;;;;;;5054643;28;20037;-80
2021/05/25 00:44:04;;;;;;;10.57;5.82;;;13.20;72.70;;;;;;5054718;28;20041;-79
2021/05/25 00:46:30;;;;;;;8.77;5.57;;;13.20;72.80;;;;;;5054756;28;20029;-80
2021/05/25 00:48:55;;;;;;;8.15;5.13;;;13.20;72.70;;;;;;5054733;28;20021;-81
2021/05/25 00:51:21;;;;;;;6.65;5.00;;;13.20;72.60;;;;;;5054903;28;20113;-80
2021/05/25 00:53:47;;;;;;;10.82;5.30;;;13.20;72.40;;;;;;5054404;28;20474;-79
2021/05/25 00:56:13;;;;;;;6.20;4.70;;;13.20;72.50;;;;;;5037214;28;20147;-79
2021/05/25 00:58:39;;;;;;;8.43;4.32;;;13.20;72.50;;;;;;5054794;28;20074;-78
2021/05/25 01:01:06;;;;;;;8.98;4.47;;;13.20;72.60;;;;;;5049515;28;20143;-79
2021/05/25 01:03:32;;;;;;;5.43;3.67;;;13.10;72.50;;;;;;5054706;28;20017;-80
2021/05/25 01:05:58;;;;;;;5.45;3.70;;;13.20;72.50;;;;;;5036559;28;20524;-79
2021/05/25 01:08:24;;;;;;;5.90;4.22;;;13.20;72.40;;;;;;5054476;28;20024;-80
2021/05/25 01:10:55;;;;;;;5.05;3.95;;;13.20;72.40;;;;;;5054724;28;20021;-81
2021/05/25 01:13:24;;;;;;;6.68;4.63;;;13.30;72.30;;;;;;5054456;28;20025;-80
2021/05/25 01:15:50;;;;;;;9.52;4.53;;;13.30;72.00;;;;;;5054427;28;20449;-80
2021/05/25 01:18:17;;;;;;;8.32;4.10;;;13.40;71.80;;;;;;5047836;28;20052;-81
2021/05/25 01:20:46;;;;;;;6.57;3.88;;;13.50;71.10;;;;;;5044133;28;20078;-80
2021/05/25 01:23:12;;;;;;;6.93;3.50;;;13.50;70.60;;;;;;5054292;28;20079;-79
2021/05/25 01:25:40;;;;;;;6.35;3.70;;;13.60;70.60;;;;;;5036250;28;20032;-79
2021/05/25 01:28:10;;;;;;;6.43;3.67;;;13.60;70.50;;;;;;5055135;28;20474;-79
2021/05/25 01:30:38;;;;;;;8.30;3.88;;;13.70;70.30;;;;;;5057218;28;20087;-80
2021/05/25 01:33:05;;;;;;;10.73;4.40;;;13.70;70.00;;;;;;5073752;28;20020;-79
2021/05/25 01:35:32;;;;;;;6.25;3.70;;;13.70;69.80;;;;;;5057597;28;20013;-78
2021/05/25 01:37:59;;;;;;;6.38;3.70;;;13.70;69.70;;;;;;5054516;28;20092;-79
2021/05/25 01:40:26;;;;;;;6.93;3.30;;;13.70;70.00;;;;;;5054099;28;20056;-78
2021/05/25 01:42:52;;;;;;;12.27;3.77;;;13.70;69.40;;;;;;5054878;28;20028;-81
2021/05/25 01:45:25;;;;;;;5.13;3.83;;;13.80;69.40;;;;;;5036198;28;20315;-79
2021/05/25 01:47:55;;;;;;;7.53;3.72;;;13.80;69.10;;;;;;5054458;28;20025;-77
2021/05/25 01:50:24;;;;;;;6.45;4.07;;;13.80;69.30;;;;;;5053648;28;20066;-79
2021/05/25 01:53:08;;;;;;;7.13;3.53;;;13.80;69.30;;;;;;5052525;28;20025;-79
2021/05/25 01:55:35;;;;;;;7.93;3.50;;;13.80;69.10;;;;;;5053867;28;20368;-78
2021/05/25 01:58:03;;;;;;;8.27;3.72;;;13.80;69.10;;;;;;5053529;28;20025;-79
2021/05/25 02:00:29;;;;;;;9.30;4.38;;;13.80;68.90;;;;;;5053584;28;20039;-81
2021/05/25 02:02:55;;;;;;;7.90;3.72;;;13.80;69.00;;;;;;5053489;28;20487;-79
2021/05/25 02:05:21;;;;;;;4.63;3.70;;;13.70;69.00;;;;;;5053647;28;20029;-77
2021/05/25 02:07:49;;;;;;;11.35;3.78;;;13.60;69.00;;;;;;5053788;28;20021;-78
2021/05/25 02:10:24;;;;;;;;;;;13.60;69.40;;;;;;5053516;28;20025;-79
2021/05/25 02:12:51;;;;;;;5.50;2.95;;;13.50;69.00;;;;;;5053348;28;19904;-79
2021/05/25 02:15:17;;;;;;;6.90;3.05;;;13.50;69.50;;;;;;5034976;28;20111;-79
2021/05/25 02:17:44;;;;;;;5.10;3.28;;;13.50;69.10;;;;;;5035500;28;20028;-78
2021/05/25 02:20:10;;;;;;;5.47;3.85;;;13.50;69.00;;;;;;5034888;28;20021;-78
2021/05/25 02:22:36;;;;;;;7.00;3.70;;;13.50;69.00;;;;;;5053205;28;20066;-79
2021/05/25 02:25:03;;;;;;;6.65;2.78;;;13.60;68.80;;;;;;5052823;28;20108;-78
2021/05/25 02:27:29;;;;;;;8.63;3.03;;;13.60;67.70;;;;;;5052975;28;20044;-78
2021/05/25 02:29:54;;;;;;;5.80;2.92;;;13.70;67.20;;;;;;5052916;28;20049;-76
2021/05/25 02:32:20;;;;;;;5.85;3.03;;;13.70;66.90;;;;;;5052059;28;20068;-78
2021/05/25 02:34:46;;;;;;;4.72;2.95;;;13.80;66.70;;;;;;5034926;28;20588;-78
2021/05/25 02:37:12;;;;;;;2.70;1.92;;;13.80;66.30;;;;;;5034805;28;20025;-77
2021/05/25 02:39:38;;;;;;;3.95;2.22;;;13.90;65.50;;;;;;5052594;28;20024;-80
2021/05/25 02:42:04;;;;;;;7.97;2.38;;;14.00;65.30;;;;;;5052654;28;20032;-79
2021/05/25 02:44:30;;;;;;;4.90;2.15;;;14.10;64.90;;;;;;5052698;28;20021;-79
2021/05/25 02:46:56;;;;;;;3.60;2.20;;;14.10;64.00;;;;;;5034871;28;20478;-79
2021/05/25 02:49:22;;;;;;;3.25;2.20;;;14.20;64.00;;;;;;5052559;28;20526;-79
2021/05/25 02:51:48;;;;;;;3.53;2.20;;;14.30;63.30;;;;;;5052997;28;20021;-81
2021/05/25 02:54:14;;;;;;;2.25;1.52;;;14.40;63.10;;;;;;5052422;28;20154;-79
2021/05/25 02:56:40;;;;;;;4.03;1.95;;;14.50;62.90;;;;;;5052441;28;20029;-79
2021/05/25 02:59:05;;;;;;;2.42;1.60;;;14.60;62.80;;;;;;5052389;28;20556;-81
2021/05/25 03:01:31;;;;;;;3.95;1.60;;;14.70;62.50;;;;;;5051211;28;20509;-80
2021/05/25 03:03:57;;;;;;;5.13;1.77;;;14.80;62.30;;;;;;5054384;28;20021;-79
2021/05/25 03:06:23;;;;;;;5.15;2.00;;;14.90;62.20;;;;;;5055358;28;20037;-80
2021/05/25 03:08:49;;;;;;;2.03;1.63;;;14.90;61.70;;;;;;5052404;28;20030;-80
2021/05/25 03:11:14;;;;;;;3.80;1.85;;;14.90;61.40;;;;;;5052293;28;20025;-78
2021/05/25 03:13:40;;;;;;;7.63;1.90;;;15.00;61.70;;;;;;5052201;28;20495;-80
2021/05/25 03:16:06;;;;;;;6.32;2.10;;;15.00;61.20;;;;;;5052383;28;20032;-80
2021/05/25 03:18:32;;;;;;;3.22;1.60;;;15.10;61.30;;;;;;5052409;28;20024;-80
2021/05/25 03:20:58;;;;;;;2.38;1.70;;;15.10;60.80;;;;;;5052293;28;20029;-80
2021/05/25 03:23:24;;;;;;;5.07;2.40;;;15.20;60.50;;;;;;5051968;28;20025;-79
2021/05/25 03:25:52;;;;;;;4.28;1.50;;;15.10;60.20;;;;;;5052536;28;20033;-80
2021/05/25 03:28:18;;;;;;;2.47;1.60;;;15.10;60.40;;;;;;5051892;28;20036;-79
2021/05/25 03:30:44;;;;;;;3.80;2.30;;;15.10;60.30;;;;;;5052247;28;20033;-79
2021/05/25 03:33:16;;;;;;;3.97;1.70;;;15.10;60.40;;;;;;5052301;28;20363;-82
2021/05/25 03:35:42;;;;;;;4.13;1.92;;;15.20;60.40;;;;;;5052575;28;20013;-78
2021/05/25 03:38:08;;;;;;;2.15;1.60;;;15.30;59.90;;;;;;5053142;28;20040;-78
2021/05/25 03:40:34;;;;;;;6.00;2.00;;;15.20;59.70;;;;;;5060439;28;20035;-79
2021/05/25 03:43:00;;;;;;;4.50;1.98;;;15.30;59.80;;;;;;5060945;28;20056;-79
2021/05/25 03:45:26;;;;;;;6.70;2.30;;;15.20;59.80;;;;;;5058546;28;20108;-79
2021/05/25 03:47:53;;;;;;;1.85;1.48;;;15.30;59.90;;;;;;5056696;28;20025;-79
2021/05/25 03:50:20;;;;;;;5.45;1.90;;;15.20;59.90;;;;;;5056018;28;20103;-79
2021/05/25 03:52:48;;;;;;;3.50;1.63;;;15.20;59.80;;;;;;5056027;28;20033;-77
2021/05/25 04:00:55;;;;;;;4.25;1.98;;;15.20;60.40;;;;;;5055623;28;20083;-78
2021/05/25 04:03:21;;;;;;;4.50;2.17;;;15.30;59.30;;;;;;5055881;28;20021;-79
2021/05/25 04:05:47;;;;;;;2.53;1.60;;;15.30;59.10;;;;;;5056076;28;20043;-80
2021/05/25 04:08:14;;;;;;;5.30;2.08;;;15.40;59.00;;;;;;5056610;28;20019;-81
2021/05/25 04:10:40;;;;;;;3.90;1.63;;;15.40;59.50;;;;;;5056735;28;20028;-82
2021/05/25 04:13:06;;;;;;;5.32;1.85;;;15.50;59.40;;;;;;5055616;28;20029;-80
2021/05/25 04:15:33;;;;;;;4.53;2.22;;;15.60;58.90;;;;;;5055773;28;20032;-81
2021/05/25 04:18:00;;;;;;;8.10;2.33;;;15.70;58.90;;;;;;5037598;28;20024;-81
2021/05/25 04:20:26;;;;;;;3.65;2.10;;;15.70;58.30;;;;;;5055288;28;20043;-79
2021/05/25 04:22:52;;;;;;;5.50;1.80;;;15.70;58.00;;;;;;5055414;28;20100;-79
2021/05/25 04:25:18;;;;;;;4.20;2.03;;;15.70;58.00;;;;;;5055004;28;20025;-79
2021/05/25 04:27:44;;;;;;;7.10;2.22;;;15.80;58.00;;;;;;5055232;28;20024;-81
2021/05/25 04:30:10;;;;;;;4.00;1.50;;;15.80;57.50;;;;;;5055155;28;20041;-80
2021/05/25 04:32:37;;;;;;;3.92;2.00;;;15.90;57.40;;;;;;5055235;28;20506;-79
2021/05/25 04:35:04;;;;;;;6.20;2.00;;;15.90;57.20;;;;;;5055124;28;20025;-79
2021/05/25 04:37:30;;;;;;;4.82;1.77;;;15.90;57.10;;;;;;5055050;28;20120;-81
2021/05/25 04:39:56;;;;;;;5.72;1.70;;;16.00;56.90;;;;;;5055266;28;20077;-81
2021/05/25 04:42:22;;;;;;;4.97;1.80;;;16.00;56.40;;;;;;5055190;28;20068;-81
2021/05/25 04:44:48;;;;;;;3.63;2.10;;;16.10;56.80;;;;;;5055096;28;20029;-81
2021/05/25 04:47:14;;;;;;;2.33;1.95;;;16.10;56.40;;;;;;5056337;28;20021;-82
2021/05/25 04:49:40;;;;;;;6.20;2.03;;;16.20;55.90;;;;;;5054962;28;20013;-82
2021/05/25 04:52:07;;;;;;;3.78;1.95;;;16.20;55.60;;;;;;5054723;28;20498;-81
2021/05/25 04:54:33;;;;;;;2.65;1.70;;;16.30;55.70;;;;;;5036733;28;20028;-79
2021/05/25 04:56:59;;;;;;;6.45;2.00;;;16.40;55.60;;;;;;5054153;28;20040;-79
2021/05/25 04:59:25;;;;;;;2.75;1.60;;;16.60;55.70;;;;;;5055073;28;20025;-80
2021/05/25 05:01:51;;;;;;;5.70;2.13;;;16.90;55.00;;;;;;5053932;28;20059;-79
2021/05/25 05:04:17;;;;;;;6.65;2.45;;;17.80;53.00;;;;;;5054453;28;20104;-81
2021/05/25 05:06:43;;;;;;;2.35;1.42;;;18.80;50.80;;;;;;5036676;28;20029;-80
2021/05/25 05:09:09;;;;;;;2.95;1.70;;;19.70;48.20;;;;;;5054570;28;20458;-80
2021/05/25 05:11:35;;;;;;;3.17;1.88;;;20.60;45.70;;;;;;5053995;28;20036;-80
2021/05/25 05:14:01;;;;;;;7.55;1.80;;;21.10;44.20;;;;;;5053876;28;20021;-80
2021/05/25 05:16:27;;;;;;;8.80;2.85;;;21.70;42.90;;;;;;5053707;28;20470;-80
2021/05/25 05:18:53;;;;;;;2.78;1.70;;;22.30;40.90;;;;;;5054408;28;20021;-80
2021/05/25 05:21:19;;;;;;;2.42;1.65;;;22.90;40.60;;;;;;5054141;28;20134;-81
2021/05/25 05:23:45;;;;;;;4.55;1.63;;;23.60;39.90;;;;;;5054117;28;20366;-80
2021/05/25 05:26:12;;;;;;;4.07;1.80;;;24.50;37.60;;;;;;5054440;28;20482;-81
2021/05/25 05:28:38;;;;;;;10.43;2.00;;;25.00;36.90;;;;;;5053943;28;20109;-80
2021/05/25 05:31:04;;;;;;;5.20;2.03;;;25.50;36.20;;;;;;5053921;28;20025;-80
2021/05/25 05:33:30;;;;;;;4.20;1.85;;;26.20;35.10;;;;;;5054148;28;20493;-83
2021/05/25 05:35:56;;;;;;;5.72;1.88;;;26.40;34.50;;;;;;5054144;28;20033;-82
2021/05/25 05:38:25;;;;;;;6.00;1.50;;;26.70;33.80;;;;;;5053378;28;20561;-80
2021/05/25 05:40:51;;;;;;;3.65;1.67;;;27.00;33.40;;;;;;5046901;28;20029;-82
2021/05/25 05:43:20;;;;;;;2.65;1.67;;;27.10;32.90;;;;;;5054268;28;20031;-82
2021/05/25 05:45:46;;;;;;;6.72;2.20;;;27.40;32.90;;;;;;5046597;28;20028;-83
2021/05/25 05:48:12;;;;;;;3.90;1.80;;;27.90;32.40;;;;;;5057814;28;20028;-81
2021/05/25 05:50:38;;;;;;;3.75;1.52;;;28.60;32.00;;;;;;5060620;28;20020;-80
2021/05/25 05:53:04;;;;;;;3.35;1.98;;;29.10;31.10;;;;;;5066376;28;20028;-80
2021/05/25 05:55:30;;;;;;;3.78;1.80;;;29.40;30.00;;;;;;5053898;28;20087;-79
2021/05/25 05:57:57;;;;;;;4.43;1.88;;;29.70;29.70;;;;;;5053758;28;20028;-81
2021/05/25 06:00:23;;;;;;;3.17;1.55;;;29.70;29.40;;;;;;5053338;28;20035;-79
2021/05/25 06:02:50;;;;;;;7.50;1.38;;;;;;;;;;5053266;28;20025;-81
2021/05/25 06:05:15;;;;;;;5.78;1.88;;;30.00;29.00;;;;;;5053277;28;20029;-80
2021/05/25 06:07:42;;;;;;;5.53;1.75;;;;;;;;;;5052382;28;20079;-81
2021/05/25 06:10:08;;;;;;;8.23;2.33;;;;;;;;;;5053334;28;20027;-82
2021/05/25 06:12:35;;;;;;;6.40;2.58;;;31.40;28.90;;;;;;5034990;28;20021;-81
2021/05/25 06:15:01;;;;;;;3.57;1.80;;;;;;;;;;5053635;28;20036;-83
2021/05/25 06:17:27;;;;;;;8.18;3.60;;;33.00;28.60;;;;;;5053615;28;20036;-82
2021/05/25 06:19:54;;;;;;;5.17;1.70;;;34.40;27.50;;;;;;5053612;28;20120;-80
2021/05/25 06:22:22;;;;;;;;;;;34.90;26.60;;;;;;5048462;28;20028;-81
2021/05/25 06:24:48;;;;;;;5.00;1.52;;;34.60;26.90;;;;;;5052061;28;19909;-84
2021/05/25 06:27:23;;;;;;;3.30;1.17;;;34.00;26.50;;;;;;5053130;28;20028;-83
2021/05/25 06:29:56;;;;;;;3.85;0.93;;;33.80;26.30;;;;;;5094825;27;1530643;-79
2021/05/25 06:32:22;;;;;;;3.33;1.27;;;33.50;25.80;;;;;;5127072;28;20016;-82
2021/05/25 06:34:48;;;;;;;1.40;1.10;;;33.40;26.10;;;;;;5127819;27;20023;-79
2021/05/25 06:37:14;;;;;;;3.70;1.20;;;33.70;26.20;;;;;;5124788;28;20039;-82
2021/05/25 06:39:40;;;;;;;5.77;1.40;;;33.80;25.80;;;;;;5128095;27;20090;-81
2021/05/25 06:42:07;;;;;;;3.97;1.40;;;33.90;25.60;;;;;;5125378;27;20020;-81
2021/05/25 06:44:33;;;;;;;4.97;2.30;;;34.70;25.70;;;;;;5131291;27;20023;-81
2021/05/25 06:47:00;;;;;;;3.50;1.40;;;;;;;;;;5125531;27;20075;-82
2021/05/25 06:49:26;;;;;;;5.53;1.63;;;35.60;25.30;;;;;;5127070;28;20036;-82
2021/05/25 06:51:52;;;;;;;3.70;1.17;;;35.90;24.80;;;;;;5126684;28;20527;-82
2021/05/25 06:54:18;;;;;;;5.50;1.77;;;36.10;25.00;;;;;;5117706;28;20028;-81
2021/05/25 06:56:44;;;;;;;4.22;1.17;;;35.60;24.30;;;;;;5128733;28;20020;-81
2021/05/25 06:59:09;;;;;;;6.33;1.93;;;35.20;24.80;;;;;;5124160;28;20381;-80
2021/05/25 07:01:35;;;;;;;2.00;1.17;;;34.20;25.60;;;;;;5124015;27;20548;-81
2021/05/25 07:04:01;;;;;;;3.07;0.90;;;34.40;25.80;;;;;;5108396;28;20379;-82
2021/05/25 07:06:27;;;;;;;4.43;1.02;;;35.20;24.80;;;;;;5109549;28;20042;-82
2021/05/25 07:08:53;;;;;;;2.43;1.23;;;35.30;24.40;;;;;;5108514;28;20088;-80
2021/05/25 07:11:20;;;;;;;4.45;1.38;;;36.00;24.30;;;;;;5109944;28;20016;-81
2021/05/25 07:13:47;;;;;;;2.58;0.90;;;36.80;24.30;;;;;;5109571;28;20469;-79
2021/05/25 07:16:13;;;;;;;3.05;1.38;;;36.80;24.00;;;;;;5109246;28;20090;-80
2021/05/25 07:18:40;;;;;;;1.73;1.20;;;37.30;23.80;;;;;;5109393;28;20016;-80
2021/05/25 07:21:06;;;;;;;2.15;1.45;;;37.70;23.60;;;;;;5109264;28;20058;-81
2021/05/25 07:23:33;;;;;;;2.63;1.73;;;38.50;23.50;;;;;;5108173;28;20046;-79
2021/05/25 07:25:59;;;;;;;2.85;1.52;;;38.70;23.20;;;;;;5108006;28;20111;-81
2021/05/25 07:28:25;;;;;;;1.25;0.82;;;38.40;23.30;;;;;;5103329;28;20497;-81
2021/05/25 07:30:51;;;;;;;1.35;0.90;;;38.50;23.00;;;;;;5109202;28;20537;-81
2021/05/25 07:33:17;;;;;;;2.08;0.93;;;38.80;22.80;;;;;;5109064;28;20099;-81
2021/05/25 07:35:46;;;;;;;1.90;1.05;;;39.10;21.80;;;;;;5109605;28;20473;-81
2021/05/25 07:38:12;;;;;;;5.90;1.10;;;39.00;21.80;;;;;;5109011;28;20030;-81
2021/05/25 07:40:41;;;;;;;4.68;1.30;;;39.50;21.90;;;;;;5097746;28;20384;-80
2021/05/25 07:43:07;;;;;;;4.13;1.33;;;39.40;22.10;;;;;;5095376;28;20043;-79
2021/05/25 07:45:34;;;;;;;2.13;1.15;;;38.70;22.20;;;;;;5095356;28;20457;-81
2021/05/25 07:48:00;;;;;;;;;;;38.00;22.30;;;;;;5096113;28;20125;-81
2021/05/25 07:50:26;;;;;;;4.50;1.20;;;37.70;23.00;;;;;;5095436;28;19904;-81
2021/05/25 07:52:57;;;;;;;4.65;1.88;;;38.00;22.50;;;;;;5095749;28;20016;-80
2021/05/25 07:55:28;;;;;;;3.80;1.15;;;39.10;22.50;;;;;;5094180;28;20024;-79
2021/05/25 07:57:56;;;;;;;4.03;1.20;;;39.40;22.00;;;;;;5095031;28;20023;-82
2021/05/25 08:00:22;;;;;;;4.30;1.15;;;39.20;22.20;;;;;;5100714;28;20515;-80
2021/05/25 08:02:49;;;;;;;2.13;1.25;;;38.80;22.50;;;;;;5112576;28;20020;-80
2021/05/25 08:05:15;;;;;;;;;;;38.70;22.10;;;;;;5098667;28;20393;-81
2021/05/25 08:07:41;;;;;;;3.70;1.10;;;38.70;22.40;;;;;;5093574;28;19918;-82
2021/05/25 08:10:09;;;;;;;6.10;1.50;;;37.90;22.00;;;;;;5094970;28;20032;-80
2021/05/25 08:12:35;;;;;;;4.45;1.35;;;38.00;22.40;;;;;;5094725;28;20032;-80
2021/05/25 08:15:03;;;;;;;2.92;1.08;;;37.60;22.40;;;;;;5094482;28;20397;-80
2021/05/25 08:20:04;;;;;;;4.80;0.80;;;38.00;22.80;;;;;;5094168;28;20023;-80
2021/05/25 08:22:30;;;;;;;2.42;1.20;;;39.00;21.70;;;;;;5093612;28;20069;-81
2021/05/25 08:24:56;;;;;;;4.00;1.20;;;39.40;21.40;;;;;;5094073;28;20028;-81
2021/05/25 08:27:22;;;;;;;;;;;39.50;21.60;;;;;;5095002;28;20052;-80
2021/05/25 08:29:48;;;;;;;5.40;1.65;;;39.00;22.30;;;;;;5094762;28;19971;-82
2021/05/25 08:32:14;;;;;;;3.03;1.23;;;38.60;21.60;;;;;;5093139;28;20046;-81
2021/05/25 08:34:39;;;;;;;3.85;1.35;;;38.40;21.80;;;;;;5094549;28;20032;-80
2021/05/25 08:37:05;;;;;;;4.05;1.38;;;38.80;22.10;;;;;;5094175;28;20047;-80
2021/05/25 08:39:31;;;;;;;1.95;1.30;;;39.40;21.80;;;;;;5093158;28;20469;-81
2021/05/25 08:41:57;;;;;;;4.15;1.55;;;39.80;21.70;;;;;;5094449;28;20536;-82
2021/05/25 08:44:26;;;;;;;2.60;1.33;;;40.00;21.60;;;;;;5094237;28;20107;-81
2021/05/25 08:46:52;;;;;;;4.68;1.10;;;40.20;21.50;;;;;;5092905;28;20469;-81
2021/05/25 08:49:19;;;;;;;4.50;1.80;;;41.00;21.40;;;;;;5094363;28;20032;-82
2021/05/25 08:51:44;;;;;;;;;;;41.60;21.20;;;;;;5092394;28;20507;-82
2021/05/25 08:54:10;;;;;;;6.80;1.30;;;41.20;21.60;;;;;;5093510;28;19908;-81
2021/05/25 08:56:36;;;;;;;4.35;1.10;;;41.20;21.00;;;;;;5093895;28;20595;-81
2021/05/25 08:59:02;;;;;;;6.50;1.45;;;40.60;20.80;;;;;;5093649;28;20138;-81
2021/05/25 09:01:28;;;;;;;;;;;40.40;21.00;;;;;;5095012;28;20021;-82
2021/05/25 09:03:59;;;;;;;5.75;1.25;;;40.10;21.60;;;;;;5093448;28;19915;-80
2021/05/25 09:06:41;;;;;;;4.63;0.98;;;40.00;21.30;;;;;;5091850;28;20016;-80
2021/05/25 09:09:12;;;;;;;2.88;0.85;;;40.00;21.00;;;;;;5093509;28;20050;-80
2021/05/25 09:12:07;;;;;;;3.67;1.10;;;40.40;21.10;;;;;;5092150;28;20507;-82
2021/05/25 09:14:46;;;;;;;4.55;1.05;;;40.50;21.10;;;;;;5092430;28;20035;-81
2021/05/25 09:17:24;;;;;;;2.78;1.30;;;40.00;21.00;;;;;;5093797;28;20028;-81
2021/05/25 09:19:51;;;;;;;6.47;0.90;;;40.00;21.20;;;;;;5093301;28;20039;-82
2021/05/25 09:22:39;;;;;;;2.85;1.20;;;38.60;21.50;;;;;;5093420;28;20470;-82
2021/05/25 09:25:25;;;;;;;2.55;1.25;;;38.80;21.90;;;;;;5093251;28;20465;-81
2021/05/25 09:28:05;;;;;;;2.60;1.20;;;39.10;22.00;;;;;;5092566;28;20063;-81
2021/05/25 09:30:34;;;;;;;4.82;1.13;;;38.90;21.40;;;;;;5079756;28;20414;-81
2021/05/25 09:33:08;;;;;;;3.20;0.95;;;38.90;21.50;;;;;;5093343;28;20020;-81
2021/05/25 09:35:38;;;;;;;4.22;0.95;;;38.30;21.00;;;;;;5078190;28;20064;-81
2021/05/25 09:38:14;;;;;;;2.63;0.80;;;37.00;21.50;;;;;;5092825;28;20020;-78
2021/05/25 09:40:42;;;;;;;2.20;0.98;;;36.40;21.90;;;;;;5091918;28;20023;-81
2021/05/25 09:43:10;;;;;;;1.90;1.08;;;35.40;22.30;;;;;;5091672;28;20382;-81
2021/05/25 09:45:36;;;;;;;1.85;0.77;;;35.30;22.60;;;;;;5091521;28;20106;-82
2021/05/25 09:48:06;;;;;;;5.40;2.08;;;35.30;22.40;;;;;;5091612;28;20055;-80
2021/05/25 09:50:37;;;;;;;1.90;0.88;;;34.60;22.50;;;;;;5092840;28;20069;-80
2021/05/25 09:53:11;;;;;;;2.92;1.10;;;31.90;22.60;;;;;;5092603;28;20493;-80
2021/05/25 09:55:58;;;;;;;8.32;1.10;;;31.00;24.10;;;;;;5092624;28;20050;-81
2021/05/25 09:58:46;;;;;;;3.58;0.80;;;30.90;25.10;;;;;;5092966;28;20028;-80
2021/05/25 10:01:12;;;;;;;3.30;1.35;;;31.30;25.40;;;;;;5092116;28;20484;-82
2021/05/25 10:03:53;;;;;;;3.22;1.45;;;32.90;24.60;;;;;;5093184;28;20103;-81
2021/05/25 10:06:20;;;;;;;3.40;1.42;;;33.50;24.20;;;;;;5092866;28;20028;-80
2021/05/25 10:08:49;;;;;;;5.18;1.50;;;34.40;23.90;;;;;;5093819;28;20442;-80
2021/05/25 10:11:17;;;;;;;2.75;1.08;;;35.30;23.70;;;;;;5096713;28;20358;-81
2021/05/25 10:13:43;;;;;;;4.47;1.15;;;36.80;23.10;;;;;;5109010;28;20028;-80
2021/05/25 10:16:11;;;;;;;3.92;1.05;;;37.00;22.50;;;;;;5107636;28;20051;-81
2021/05/25 10:21:09;;;;;;;4.70;0.98;;;37.20;22.50;;;;;;5091312;28;20059;-82
2021/05/25 10:23:36;;;;;;;2.95;1.30;;;37.10;22.20;;;;;;5092854;28;20043;-81
2021/05/25 10:26:05;;;;;;;3.17;1.10;;;35.90;22.50;;;;;;5090651;28;20105;-82
2021/05/25 10:28:32;;;;;;;5.53;2.13;;;34.40;23.10;;;;;;5090677;28;20048;-81
2021/05/25 10:30:58;;;;;;;3.60;1.42;;;32.10;24.30;;;;;;5091518;28;20020;-82
2021/05/25 10:33:27;;;;;;;2.25;0.95;;;30.00;25.30;;;;;;5092785;28;20113;-83
2021/05/25 10:36:03;;;;;;;3.63;1.30;;;28.60;26.40;;;;;;5092707;28;20021;-83
2021/05/25 10:38:46;;;;;;;4.65;1.35;;;27.40;27.40;;;;;;5092167;28;20049;-82
2021/05/25 10:41:27;;;;;;;4.80;1.35;;;26.80;27.90;;;;;;5092767;28;20024;-81
2021/05/25 10:43:55;;;;;;;9.95;1.60;;;26.10;28.40;;;;;;5092251;28;20485;-81
2021/05/25 10:46:23;;;;;;;1.77;0.70;;;25.40;27.70;;;;;;5092391;28;20039;-80
2021/05/25 10:49:11;;;;;;;2.05;1.00;;;24.60;28.60;;;;;;5093356;28;20026;-81
2021/05/25 10:51:49;;;;;;;1.30;0.88;;;24.00;29.50;;;;;;5092362;28;20095;-81
2021/05/25 10:54:35;;;;;;;2.45;1.15;;;23.50;30.60;;;;;;5078044;28;20081;-82
2021/05/25 10:57:22;;;;;;;3.65;1.05;;;23.20;30.80;;;;;;5092232;28;20023;-81
2021/05/25 11:00:11;;;;;;;1.10;1.00;;;23.00;31.00;;;;;;5090676;28;20024;-82
2021/05/25 11:02:46;;;;;;;1.90;1.10;;;22.80;31.40;;;;;;5091830;28;20385;-82
2021/05/25 11:05:37;;;;;;;3.75;1.65;;;22.70;31.90;;;;;;5092083;28;20021;-80
2021/05/25 11:08:09;;;;;;;7.07;2.03;;;22.60;33.00;;;;;;5091993;28;20020;-81
2021/05/25 11:10:46;;;;;;;2.70;1.40;;;22.30;34.30;;;;;;5092209;28;20029;-79
2021/05/25 11:13:17;;;;;;;2.22;1.17;;;22.50;34.40;;;;;;5092163;28;20089;-82
2021/05/25 11:16:28;;;;;;;5.90;1.85;;;22.70;34.00;;;;;;5093670;28;20024;-80
2021/05/25 11:19:09;;;;;;;4.32;1.90;;;22.70;33.50;;;;;;5097323;28;20435;-82
2021/05/25 11:24:30;;;;;;;5.10;1.58;;;22.60;33.30;;;;;;5096126;28;20109;-81
2021/05/25 11:26:58;;;;;;;8.43;1.70;;;22.70;33.60;;;;;;5095730;28;20479;-81
2021/05/25 11:29:29;;;;;;;4.68;0.93;;;22.60;33.30;;;;;;5096388;28;20048;-81
2021/05/25 11:31:58;;;;;;;6.05;1.80;;;22.50;33.20;;;;;;5096852;28;20427;-80
2021/05/25 11:34:26;;;;;;;2.63;1.02;;;22.60;33.30;;;;;;5095471;28;20046;-83
2021/05/25 11:37:06;;;;;;;5.68;1.73;;;22.60;33.20;;;;;;5094839;28;20051;-82
2021/05/25 11:39:34;;;;;;;3.53;1.83;;;22.70;32.90;;;;;;5095502;28;20020;-83
2021/05/25 11:42:01;;;;;;;4.07;1.75;;;22.70;33.10;;;;;;5095535;28;20028;-82
2021/05/25 11:44:41;;;;;;;2.92;1.00;;;22.60;33.20;;;;;;5096093;28;20493;-81
2021/05/25 11:47:08;;;;;;;6.15;1.48;;;22.50;33.00;;;;;;5096036;28;20062;-82
2021/05/25 11:49:42;;;;;;;7.27;1.40;;;22.40;33.10;;;;;;5095937;28;20028;-83
2021/05/25 11:52:21;;;;;;;2.53;1.45;;;22.50;33.50;;;;;;5095343;28;20427;-82
2021/05/25 11:54:50;;;;;;;3.13;1.13;;;22.50;32.30;;;;;;5095497;28;20362;-82
2021/05/25 11:57:37;;;;;;;1.45;1.10;;;22.50;32.70;;;;;;5094328;28;20048;-81
2021/05/25 12:00:23;;;;;;;1.47;0.97;;;22.50;33.20;;;;;;5095890;28;20016;-82
2021/05/25 12:02:57;;;;;;;2.15;1.08;;;22.50;33.00;;;;;;5095115;28;20264;-81
2021/05/25 12:05:29;;;;;;;1.95;1.33;;;22.60;33.00;;;;;;5095209;28;20032;-82
2021/05/25 12:08:00;;;;;;;3.78;1.90;;;22.50;33.00;;;;;;5095028;28;20085;-82
2021/05/25 12:10:28;;;;;;;2.75;1.20;;;22.60;33.70;;;;;;5095014;28;20507;-82
2021/05/25 12:13:11;;;;;;;10.32;3.20;;;22.50;33.00;;;;;;5093837;28;20484;-80
2021/05/25 12:15:47;;;;;;;2.72;1.23;;;22.40;33.70;;;;;;5094706;28;20024;-82
2021/05/25 12:18:19;;;;;;;2.40;1.20;;;22.30;33.40;;;;;;5094874;28;20107;-81
2021/05/25 12:20:56;;;;;;;4.20;1.25;;;22.40;32.90;;;;;;5094632;28;20158;-81
2021/05/25 12:23:31;;;;;;;3.70;1.48;;;22.30;34.00;;;;;;5094146;28;20024;-81
2021/05/25 12:25:59;;;;;;;2.60;1.20;;;22.50;33.00;;;;;;5098449;28;20434;-81
2021/05/25 12:28:31;;;;;;;5.57;1.40;;;22.40;32.60;;;;;;5108818;28;20048;-81
2021/05/25 12:30:59;;;;;;;5.40;1.20;;;22.30;32.90;;;;;;5103358;28;20024;-82
2021/05/25 12:33:27;;;;;;;6.10;1.50;;;22.40;32.20;;;;;;5095079;28;20525;-80
2021/05/25 12:35:56;;;;;;;1.80;1.00;;;22.30;32.90;;;;;;5094994;28;20385;-81
2021/05/25 12:38:22;;;;;;;3.83;1.10;;;22.20;32.80;;;;;;5092960;28;20032;-82
2021/05/25 12:40:59;;;;;;;8.07;4.18;;;21.90;32.80;;;;;;5094599;28;20024;-81
2021/05/25 12:43:27;;;;;;;2.85;1.15;;;21.90;33.40;;;;;;5094421;28;20027;-80
2021/05/25 12:45:53;;;;;;;6.63;2.83;;;22.00;33.10;;;;;;5094287;28;20031;-82
2021/05/25 12:48:42;;;;;;;2.93;1.50;;;21.90;33.40;;;;;;5092774;28;20066;-82
2021/05/25 12:51:09;;;;;;;1.40;1.30;;;22.00;33.00;;;;;;5082522;28;20058;-82
2021/05/25 12:53:51;;;;;;;5.25;1.95;;;22.10;33.00;;;;;;5094011;28;20035;-83
2021/05/25 12:56:19;;;;;;;1.20;0.80;;;22.10;33.00;;;;;;5092858;28;20119;-81
2021/05/25 12:58:48;;;;;;;3.90;1.42;;;22.20;33.50;;;;;;5094581;28;20076;-81
2021/05/25 13:01:33;;;;;;;6.93;1.10;;;22.30;34.00;;;;;;5094204;28;20016;-82
2021/05/25 13:04:01;;;;;;;2.65;1.08;;;22.40;33.60;;;;;;5094008;28;20029;-82
2021/05/25 13:06:36;;;;;;;1.70;0.82;;;22.40;31.90;;;;;;5093637;28;20554;-83
2021/05/25 13:09:14;;;;;;;3.53;1.80;;;22.20;32.40;;;;;;5092625;28;20043;-82
2021/05/25 13:11:57;;;;;;;2.58;1.70;;;22.10;33.70;;;;;;5093343;28;20024;-82
2021/05/25 13:14:23;;;;;;;3.50;1.10;;;22.00;34.20;;;;;;5092154;28;20106;-81
2021/05/25 13:16:57;;;;;;;2.65;1.10;;;21.90;34.00;;;;;;5093374;28;20448;-82